»·PEaware :: GBGGM KSBP-KSMX

GBGGM :: KSBP-KSMX

FLIGHT INFORMATION

Flight Status: Arrived
Operator: Unknown
More flights by this operator :: More flights under this callsign
Pilot: John C. (10902)
Aircraft: PIPER PA-38 TOMAHAWK
(PA38)
More flights by this aircraft type
Origin: KSBP San Luis Co Regl
United States
Destination: KSMX Santa Maria Pub/Capt Hancock
United States
More flights between these airports :: More routes between these airports
Route: KSBP KSMX
File this flight plan on PilotEdge
Remarks: CAT-4Exam
Altitude:
(Current/Filed)
4,500ft
Speed:
(Current/Filed)
90kts
Departed: 11-Sep-17 02:36 PM
Arrived: 11-Sep-17 02:59 PM
Distance/Time
Traveled:
0nm/0:23
Distance/Time
To Go:
Arrived

Flight Plot

Page will automatically refresh every two minutes.


Map Options




Map Legend


Flown Route
Filed Route
Departure Airport
Arrival Airport
Navaid (VOR, NDB)
Fix

Horizontal Profiles

Position Reports

Time Latitude Longitude Heading Altitude Ground
Speed
11-Sep-17 14:25 35.237961 -120.639042 0 215ft 0kts
11-Sep-17 14:26 35.237961 -120.639042 0 215ft 0kts
11-Sep-17 14:27 35.237961 -120.639042 0 215ft 0kts
11-Sep-17 14:28 35.237961 -120.639042 0 215ft 0kts
11-Sep-17 14:29 35.237624 -120.637397 128 215ft 5kts
11-Sep-17 14:30 35.236723 -120.637968 134 215ft 1kts
11-Sep-17 14:34 35.237962 -120.639041 0 215ft 0kts
11-Sep-17 14:35 35.237962 -120.639041 0 215ft 0kts
11-Sep-17 14:36 35.237088 -120.637255 191 215ft 11kts
11-Sep-17 14:37 35.235316 -120.635414 122 215ft 16kts
11-Sep-17 14:38 35.233340 -120.632559 211 215ft 0kts
11-Sep-17 14:39 35.233297 -120.632592 212 215ft 7kts
11-Sep-17 14:40 35.240675 -120.646789 306 536ft 76kts
11-Sep-17 14:41 35.246875 -120.670076 232 1163ft 87kts
11-Sep-17 14:42 35.226501 -120.662311 149 1807ft 80kts
11-Sep-17 14:43 35.206745 -120.650726 158 2498ft 78kts
11-Sep-17 14:44 35.198885 -120.646920 158 2739ft 79kts
11-Sep-17 14:45 35.178293 -120.636849 157 3350ft 80kts
11-Sep-17 14:46 35.157521 -120.625772 156 3898ft 83kts
11-Sep-17 14:47 35.135634 -120.614216 156 4398ft 89kts
11-Sep-17 14:48 35.109238 -120.599960 156 4297ft 103kts
11-Sep-17 14:49 35.085114 -120.586960 155 4151ft 92kts
11-Sep-17 14:50 35.077954 -120.583110 155 4099ft 92kts
11-Sep-17 14:51 35.057840 -120.572291 155 3953ft 91kts
11-Sep-17 14:52 35.047185 -120.566541 155 3877ft 90kts
11-Sep-17 14:53 35.024560 -120.554091 154 3753ft 88kts
11-Sep-17 14:54 35.002584 -120.541512 153 3650ft 87kts
11-Sep-17 14:55 34.980315 -120.528269 153 3392ft 88kts
11-Sep-17 14:56 34.958128 -120.514854 153 2934ft 88kts
11-Sep-17 14:57 34.936134 -120.501462 153 2514ft 88kts
11-Sep-17 14:58 34.914280 -120.488063 152 2070ft 88kts
11-Sep-17 14:59 34.894008 -120.472261 126 1566ft 88kts
11-Sep-17 15:00 34.878503 -120.449872 130 1169ft 84kts
11-Sep-17 15:01 34.871981 -120.428036 30 1001ft 66kts
11-Sep-17 15:02 34.889159 -120.441451 316 408ft 79kts
11-Sep-17 15:03 34.900201 -120.453487 355 264ft 5kts
11-Sep-17 15:04 34.900217 -120.453489 352 264ft 0kts
11-Sep-17 15:05 34.900464 -120.453521 351 264ft 6kts
11-Sep-17 15:06 34.903837 -120.456031 123 264ft 10kts
11-Sep-17 15:07 34.903641 -120.454999 48 264ft 0kts
11-Sep-17 15:08 34.903641 -120.454999 48 264ft 0kts
11-Sep-17 15:09 34.903641 -120.454999 48 264ft 0kts
11-Sep-17 15:10 35.237972 -120.639042 0 219ft 0kts
11-Sep-17 15:11 35.237972 -120.639042 0 219ft 0kts
11-Sep-17 15:12 35.237972 -120.639042 0 219ft 0kts
11-Sep-17 15:13 35.237972 -120.639042 0 219ft 0kts
11-Sep-17 15:14 35.237972 -120.639042 0 219ft 0kts
11-Sep-17 15:15 35.237972 -120.639042 0 219ft 0kts
11-Sep-17 15:16 35.237972 -120.639042 0 219ft 0kts
11-Sep-17 15:17 35.237972 -120.639042 0 219ft 0kts

Navigation Log

Ident Type
1. KSBP Airport
2. KSMX Airport